Time;durP1;ratioP1;P1;durP2;ratioP2;P2;SDS_P1;SDS_P2;PMS_P1;PMS_P2;Temp;Humidity;BMP_temperature;BMP_pressure;BME280_temperature;BME280_humidity;BME280_pressure;Samples;Min_cycle;Max_cycle;Signal;HPM_P1;HPM_P2
2021/11/17 02:28:12;;;;;;;23.27;9.82;;;5.10;99.90;;;;;;5048152;28;20032;-74
2021/11/17 02:31:19;;;;;;;23.42;9.38;;;5.10;99.90;;;;;;5048038;28;20135;-74
2021/11/17 02:33:54;;;;;;;20.17;8.95;;;5.10;99.90;;;;;;5048988;28;20044;-74
2021/11/17 02:36:19;;;;;;;17.85;8.07;;;5.10;99.90;;;;;;5048048;28;20044;-74
2021/11/17 02:38:48;;;;;;;22.27;8.35;;;5.10;99.90;;;;;;5048306;28;20048;-74
2021/11/17 02:41:34;;;;;;;17.00;7.38;;;5.10;99.90;;;;;;5047149;28;20021;-74
2021/11/17 02:44:13;;;;;;;19.30;8.68;;;5.10;99.90;;;;;;5046400;28;20073;-74
2021/11/17 02:46:44;;;;;;;21.95;7.70;;;5.10;99.90;;;;;;5045433;28;20055;-74
2021/11/17 02:49:31;;;;;;;22.77;8.02;;;5.10;99.90;;;;;;5048411;28;20028;-74
2021/11/17 02:52:14;;;;;;;18.17;7.85;;;5.10;99.90;;;;;;5050424;28;20060;-74
2021/11/17 02:55:09;;;;;;;18.75;7.55;;;5.10;99.90;;;;;;5048600;28;20033;-74
2021/11/17 02:57:47;;;;;;;15.80;8.10;;;5.00;99.90;;;;;;5046935;28;20033;-73
2021/11/17 03:00:31;;;;;;;20.92;8.10;;;5.00;99.90;;;;;;5048100;28;20347;-74
2021/11/17 03:03:24;;;;;;;17.63;7.25;;;5.00;99.90;;;;;;5049531;28;21610;-73
2021/11/17 03:06:02;;;;;;;20.05;8.13;;;5.00;99.90;;;;;;5045496;28;20029;-74
2021/11/17 03:08:37;;;;;;;18.55;8.43;;;5.00;99.90;;;;;;5044646;28;20079;-74
2021/11/17 03:11:12;;;;;;;18.77;8.63;;;5.00;99.90;;;;;;5045740;28;20360;-74
2021/11/17 03:13:58;;;;;;;15.77;7.15;;;5.00;99.90;;;;;;5031324;28;20029;-74
2021/11/17 03:16:31;;;;;;;17.98;7.68;;;5.00;99.90;;;;;;5029797;28;20029;-74
2021/11/17 03:19:08;;;;;;;19.15;8.55;;;5.00;99.90;;;;;;5049860;28;20017;-73
2021/11/17 03:22:27;;;;;;;16.98;7.15;;;5.00;99.90;;;;;;5045950;28;20502;-74
2021/11/17 03:24:52;;;;;;;18.52;6.85;;;5.00;99.90;;;;;;5028978;28;20123;-74
2021/11/17 03:27:57;;;;;;;16.65;7.00;;;5.00;99.90;;;;;;5048222;28;20108;-74
2021/11/17 03:30:41;;;;;;;16.10;6.70;;;5.10;99.90;;;;;;5043847;28;20041;-74
2021/11/17 03:33:28;;;;;;;16.25;7.07;;;5.20;99.90;;;;;;5049509;28;20033;-73
2021/11/17 03:36:14;;;;;;;17.55;6.68;;;5.10;99.90;;;;;;5047119;28;20051;-74
2021/11/17 03:39:25;;;;;;;15.90;6.72;;;5.10;99.90;;;;;;5046290;28;20487;-74
2021/11/17 03:41:56;;;;;;;18.02;7.45;;;5.00;99.90;;;;;;5045227;28;20151;-74
2021/11/17 03:44:46;;;;;;;16.20;7.18;;;5.00;99.90;;;;;;5049640;28;20029;-74
2021/11/17 03:47:21;;;;;;;17.30;6.85;;;5.10;99.90;;;;;;5045767;28;20453;-74
2021/11/17 03:50:23;;;;;;;17.63;7.78;;;5.10;99.90;;;;;;5044758;28;20033;-74
2021/11/17 03:53:20;;;;;;;15.93;6.70;;;5.10;99.90;;;;;;5043617;28;20107;-74
2021/11/17 03:56:07;;;;;;;18.45;7.18;;;5.10;99.90;;;;;;5044099;28;20494;-74
2021/11/17 03:58:55;;;;;;;18.58;7.80;;;5.10;99.90;;;;;;5046894;28;20040;-74
2021/11/17 04:01:36;;;;;;;16.95;7.68;;;5.00;99.90;;;;;;5046607;28;20699;-74
2021/11/17 04:04:26;;;;;;;18.23;7.35;;;5.00;99.90;;;;;;5043605;28;20033;-74
2021/11/17 04:07:03;;;;;;;14.75;6.65;;;5.00;99.90;;;;;;5045808;28;20041;-74
2021/11/17 04:09:51;;;;;;;18.83;8.20;;;5.00;99.90;;;;;;5070016;28;20059;-74
2021/11/17 04:12:34;;;;;;;17.52;8.10;;;5.10;99.90;;;;;;5048711;28;20036;-74
2021/11/17 04:15:26;;;;;;;15.98;7.78;;;5.10;99.90;;;;;;5046340;28;20100;-74
2021/11/17 04:17:57;;;;;;;16.48;7.72;;;5.00;99.90;;;;;;5046327;28;20051;-73
2021/11/17 04:20:42;;;;;;;16.08;6.50;;;4.90;99.90;;;;;;5048588;28;20102;-74
2021/11/17 04:23:29;;;;;;;20.45;7.97;;;5.00;99.90;;;;;;5047174;28;20040;-74
2021/11/17 04:26:35;;;;;;;18.63;8.00;;;5.00;99.90;;;;;;5044201;28;20044;-74
2021/11/17 04:29:10;;;;;;;18.38;7.40;;;5.00;99.90;;;;;;5044711;28;20036;-74
2021/11/17 04:31:50;;;;;;;20.05;8.05;;;5.00;99.90;;;;;;5045747;28;20367;-74
2021/11/17 04:34:45;;;;;;;18.80;8.07;;;5.00;99.90;;;;;;5045864;28;20029;-74
2021/11/17 04:37:40;;;;;;;17.08;7.47;;;5.00;99.90;;;;;;5044125;28;20483;-74
2021/11/17 04:40:26;;;;;;;24.80;9.70;;;5.00;99.90;;;;;;5039283;28;20068;-74
2021/11/17 04:43:15;;;;;;;18.90;8.85;;;5.00;99.90;;;;;;5045994;28;20025;-74
2021/11/17 04:46:18;;;;;;;25.10;10.32;;;5.00;99.90;;;;;;5045666;28;20037;-74
2021/11/17 04:49:06;;;;;;;21.30;8.38;;;5.00;99.90;;;;;;5043451;28;20029;-74
2021/11/17 04:51:47;;;;;;;20.88;9.15;;;5.00;99.90;;;;;;5044737;28;20491;-74
2021/11/17 04:54:26;;;;;;;23.58;10.40;;;5.00;99.90;;;;;;5045398;28;20025;-74
2021/11/17 04:57:08;;;;;;;20.70;9.05;;;5.10;99.90;;;;;;5043697;28;20033;-74
2021/11/17 04:59:59;;;;;;;20.33;9.00;;;5.10;99.90;;;;;;5045008;28;20043;-74
2021/11/17 05:02:31;;;;;;;21.63;9.48;;;5.00;99.90;;;;;;5048793;28;20419;-74
2021/11/17 05:05:14;;;;;;;24.02;10.15;;;5.00;99.90;;;;;;5049391;28;20521;-73
2021/11/17 05:07:57;;;;;;;21.40;9.90;;;5.00;99.90;;;;;;5044702;28;20041;-74
2021/11/17 05:10:35;;;;;;;21.08;9.90;;;5.00;99.90;;;;;;5048195;28;20036;-74
2021/11/17 05:13:31;;;;;;;17.88;8.13;;;5.00;99.90;;;;;;5048423;28;20036;-74
2021/11/17 05:16:38;;;;;;;21.23;9.90;;;5.00;99.90;;;;;;5048747;28;20021;-74
2021/11/17 05:19:42;;;;;;;22.85;9.45;;;5.00;99.90;;;;;;5036380;28;20041;-72
2021/11/17 05:22:42;;;;;;;21.23;8.82;;;5.00;99.90;;;;;;4975177;28;20133;-74
2021/11/17 05:25:29;;;;;;;26.58;10.57;;;5.00;99.90;;;;;;4984955;28;20037;-74
2021/11/17 05:28:10;;;;;;;22.35;9.05;;;5.00;99.90;;;;;;5038579;28;20133;-74
2021/11/17 05:30:55;;;;;;;19.70;9.52;;;5.00;99.90;;;;;;5046872;28;20041;-73
2021/11/17 05:33:51;;;;;;;25.17;9.77;;;5.00;99.90;;;;;;5047503;28;20033;-74
2021/11/17 05:36:35;;;;;;;21.50;8.98;;;5.00;99.90;;;;;;5046249;28;20877;-74
2021/11/17 05:39:10;;;;;;;18.83;8.63;;;5.00;99.90;;;;;;5046573;28;20056;-74
2021/11/17 05:42:04;;;;;;;19.88;8.98;;;5.00;99.90;;;;;;5048050;28;20254;-74
2021/11/17 05:44:58;;;;;;;20.85;9.30;;;5.10;99.90;;;;;;5034407;28;20021;-74
2021/11/17 05:48:02;;;;;;;20.48;9.68;;;5.10;99.90;;;;;;5049227;28;20025;-76
2021/11/17 05:50:55;;;;;;;26.02;10.68;;;5.10;99.90;;;;;;5032063;28;20041;-74
2021/11/17 05:53:31;;;;;;;24.60;10.25;;;5.00;99.90;;;;;;5044054;28;20064;-73
2021/11/17 05:56:06;;;;;;;26.42;10.85;;;5.00;99.90;;;;;;5043282;28;20025;-73
2021/11/17 05:58:45;;;;;;;24.70;10.73;;;5.00;99.90;;;;;;5047243;28;20107;-73
2021/11/17 06:01:25;;;;;;;27.13;11.13;;;5.00;99.90;;;;;;5046653;28;20059;-73
2021/11/17 06:03:58;;;;;;;27.55;11.68;;;5.00;99.90;;;;;;5043351;28;21503;-73
2021/11/17 06:06:24;;;;;;;28.80;12.82;;;5.00;99.90;;;;;;5044708;28;20490;-72
2021/11/17 06:08:58;;;;;;;29.27;12.27;;;5.10;99.90;;;;;;5043641;28;20021;-72
2021/11/17 06:11:28;;;;;;;31.70;13.23;;;5.00;99.90;;;;;;5048096;28;20037;-72
2021/11/17 06:13:56;;;;;;;33.92;13.13;;;5.00;99.90;;;;;;5050479;28;20029;-72
2021/11/17 06:16:22;;;;;;;25.27;11.95;;;5.00;99.90;;;;;;5050149;28;20033;-73
2021/11/17 06:18:48;;;;;;;28.88;13.27;;;5.00;99.90;;;;;;5050734;28;20066;-73
2021/11/17 06:21:15;;;;;;;26.40;12.20;;;5.00;99.90;;;;;;5051193;28;20029;-73
2021/11/17 06:23:52;;;;;;;32.80;12.10;;;5.00;99.90;;;;;;5053960;28;20455;-73
2021/11/17 06:26:21;;;;;;;27.10;12.88;;;5.10;99.90;;;;;;5049356;28;20087;-73
2021/11/17 06:28:57;;;;;;;30.40;14.30;;;5.10;99.90;;;;;;5054885;28;20033;-71
2021/11/17 06:31:24;;;;;;;29.50;13.23;;;5.10;99.90;;;;;;5052643;28;20029;-72
2021/11/17 06:33:50;;;;;;;30.27;14.05;;;5.10;99.90;;;;;;5051325;28;20024;-73
2021/11/17 06:36:17;;;;;;;33.08;14.48;;;5.10;99.90;;;;;;5050370;28;20025;-72
2021/11/17 06:38:44;;;;;;;32.13;13.40;;;5.10;99.90;;;;;;5047070;28;20024;-73
2021/11/17 06:41:10;;;;;;;33.53;14.55;;;5.10;99.90;;;;;;5044553;28;20427;-73
2021/11/17 06:43:36;;;;;;;33.03;14.55;;;5.20;99.90;;;;;;5043475;28;20095;-73
2021/11/17 06:46:02;;;;;;;35.95;15.20;;;5.30;99.90;;;;;;5047002;28;20599;-73
2021/11/17 06:48:29;;;;;;;32.72;14.82;;;5.30;99.90;;;;;;5045777;28;20091;-72
2021/11/17 06:50:56;;;;;;;31.08;14.65;;;5.30;99.90;;;;;;5048180;28;20083;-72
2021/11/17 06:53:24;;;;;;;31.17;14.32;;;5.20;99.90;;;;;;5052296;28;20036;-73
2021/11/17 06:55:50;;;;;;;38.85;16.02;;;5.20;99.90;;;;;;5048212;28;20029;-73
2021/11/17 06:58:16;;;;;;;33.03;14.93;;;5.20;99.90;;;;;;5049739;28;20025;-73
2021/11/17 07:00:44;;;;;;;36.80;16.48;;;5.20;99.90;;;;;;5042519;28;20035;-73
2021/11/17 07:03:10;;;;;;;30.15;14.65;;;5.20;99.90;;;;;;5045181;28;20025;-75
2021/11/17 07:05:35;;;;;;;30.10;13.48;;;5.30;99.90;;;;;;5042072;28;20040;-73
2021/11/17 07:08:04;;;;;;;31.52;13.63;;;5.40;99.90;;;;;;5046838;28;20025;-73
2021/11/17 07:10:31;;;;;;;29.25;14.30;;;5.40;99.90;;;;;;5044074;28;20041;-74
2021/11/17 07:12:57;;;;;;;34.80;15.45;;;5.40;99.90;;;;;;5047454;28;20574;-73
2021/11/17 07:15:25;;;;;;;32.97;14.55;;;5.50;99.90;;;;;;5044122;28;20108;-74
2021/11/17 07:17:51;;;;;;;33.67;14.80;;;5.50;99.90;;;;;;5047529;28;20029;-73
2021/11/17 07:20:16;;;;;;;32.15;15.32;;;5.40;99.90;;;;;;5044703;28;20033;-74
2021/11/17 07:22:43;;;;;;;33.83;14.30;;;5.50;99.90;;;;;;5044017;28;20025;-74
2021/11/17 07:25:12;;;;;;;33.42;14.30;;;5.50;99.90;;;;;;5050483;28;20029;-74
2021/11/17 07:27:38;;;;;;;34.10;15.07;;;5.40;99.90;;;;;;5045458;28;20575;-74
2021/11/17 07:30:10;;;;;;;31.58;15.35;;;5.50;99.90;;;;;;5042328;28;20056;-74
2021/11/17 07:32:36;;;;;;;31.90;15.55;;;5.50;99.90;;;;;;5039685;28;20036;-73
2021/11/17 07:35:03;;;;;;;29.67;14.32;;;5.40;99.90;;;;;;5043839;28;20082;-73
2021/11/17 07:37:29;;;;;;;33.40;13.35;;;5.50;99.90;;;;;;5043895;28;20062;-73
2021/11/17 07:39:54;;;;;;;36.40;14.40;;;5.50;99.90;;;;;;5043883;28;20032;-73
2021/11/17 07:42:20;;;;;;;32.85;14.05;;;5.50;99.90;;;;;;5044652;28;20029;-73
2021/11/17 07:44:48;;;;;;;34.75;14.82;;;5.50;99.90;;;;;;5041913;28;20596;-73
2021/11/17 07:47:13;;;;;;;40.17;15.90;;;5.40;99.90;;;;;;5042783;28;20653;-72
2021/11/17 07:49:39;;;;;;;34.08;15.65;;;5.40;99.90;;;;;;5046397;28;20115;-72
2021/11/17 07:52:05;;;;;;;32.72;14.82;;;5.50;99.90;;;;;;5047835;28;20105;-72
2021/11/17 07:54:31;;;;;;;29.73;14.20;;;5.60;99.90;;;;;;5045476;28;20028;-72
2021/11/17 07:56:58;;;;;;;30.58;13.70;;;5.60;99.90;;;;;;5046167;28;20025;-72
2021/11/17 07:59:28;;;;;;;34.25;13.48;;;5.60;99.90;;;;;;5029985;28;20017;-72
2021/11/17 08:01:56;;;;;;;38.17;16.02;;;5.60;99.90;;;;;;5044336;28;20116;-73
2021/11/17 08:04:23;;;;;;;40.75;16.50;;;5.60;99.90;;;;;;5039464;28;20761;-72
2021/11/17 08:06:51;;;;;;;33.22;14.13;;;5.60;99.90;;;;;;5043650;28;20021;-73
2021/11/17 08:09:17;;;;;;;35.63;14.88;;;5.60;99.90;;;;;;5043205;28;20157;-73
2021/11/17 08:11:45;;;;;;;41.38;16.83;;;5.60;99.90;;;;;;5041211;28;20037;-73
2021/11/17 08:14:11;;;;;;;31.20;14.65;;;5.60;99.90;;;;;;5044910;28;20025;-72
2021/11/17 08:16:38;;;;;;;35.80;15.40;;;5.60;99.90;;;;;;5043965;28;20501;-73
2021/11/17 08:19:04;;;;;;;33.78;15.15;;;5.70;99.90;;;;;;5047282;28;20021;-73
2021/11/17 08:21:30;;;;;;;35.05;14.40;;;5.70;99.90;;;;;;5044893;28;20036;-73
2021/11/17 08:23:56;;;;;;;31.92;13.43;;;5.70;99.90;;;;;;5046067;28;20116;-73
2021/11/17 08:26:23;;;;;;;33.97;14.10;;;5.70;99.90;;;;;;5047333;28;20108;-73
2021/11/17 08:28:50;;;;;;;34.05;13.88;;;5.70;99.90;;;;;;5041645;28;20044;-72
2021/11/17 08:31:16;;;;;;;37.65;15.70;;;5.70;99.90;;;;;;5043184;28;20028;-72
2021/11/17 08:33:44;;;;;;;30.27;13.63;;;5.70;99.90;;;;;;5042996;28;20060;-71
2021/11/17 08:36:10;;;;;;;32.30;14.10;;;5.80;99.90;;;;;;5041384;28;20021;-72
2021/11/17 08:38:37;;;;;;;33.58;13.48;;;5.80;99.90;;;;;;5044445;28;20494;-72
2021/11/17 08:41:06;;;;;;;31.65;14.07;;;5.80;99.90;;;;;;5044294;28;20032;-72
2021/11/17 08:43:32;;;;;;;31.75;14.00;;;5.80;99.90;;;;;;5042857;28;20021;-72
2021/11/17 08:45:59;;;;;;;28.67;12.80;;;5.80;99.90;;;;;;5041328;28;20827;-73
2021/11/17 08:48:28;;;;;;;35.00;14.90;;;5.80;99.90;;;;;;5047338;28;20108;-72
2021/11/17 08:50:55;;;;;;;32.80;13.30;;;5.80;99.90;;;;;;5046533;28;20403;-72
2021/11/17 08:53:24;;;;;;;35.78;14.02;;;5.80;99.90;;;;;;5041026;28;20059;-72
2021/11/17 08:55:54;;;;;;;34.92;13.85;;;5.80;99.90;;;;;;5040635;28;20029;-72
2021/11/17 08:58:21;;;;;;;40.03;15.30;;;5.80;99.90;;;;;;5041964;28;20450;-73
2021/11/17 09:00:48;;;;;;;35.70;14.30;;;5.80;99.90;;;;;;5046055;28;20029;-73
2021/11/17 09:03:15;;;;;;;33.80;13.45;;;5.80;99.90;;;;;;5048431;28;20108;-73
2021/11/17 09:05:45;;;;;;;32.63;13.48;;;5.80;99.90;;;;;;5047073;28;20105;-72
2021/11/17 09:08:14;;;;;;;31.20;13.68;;;5.90;99.90;;;;;;5045975;28;20028;-73
2021/11/17 09:10:47;;;;;;;30.05;13.65;;;6.00;99.90;;;;;;5044938;28;20368;-73
2021/11/17 09:13:14;;;;;;;34.75;14.20;;;6.00;99.90;;;;;;5048622;28;20021;-73
2021/11/17 09:15:42;;;;;;;31.58;13.13;;;6.00;99.90;;;;;;5050547;28;20096;-73
2021/11/17 09:18:10;;;;;;;29.55;12.57;;;6.00;99.90;;;;;;5048880;28;20402;-73
2021/11/17 09:20:37;;;;;;;30.65;12.82;;;6.00;99.90;;;;;;5044200;28;20070;-73
2021/11/17 09:23:04;;;;;;;31.52;13.10;;;6.00;99.90;;;;;;5051510;28;20036;-72
2021/11/17 09:25:30;;;;;;;31.13;14.18;;;6.00;99.90;;;;;;5048557;28;20028;-74
2021/11/17 09:27:56;;;;;;;29.27;13.18;;;6.10;99.90;;;;;;5046493;28;20056;-73
2021/11/17 09:30:25;;;;;;;32.15;14.05;;;6.10;99.90;;;;;;5046451;28;20190;-73
2021/11/17 09:32:54;;;;;;;33.78;14.52;;;6.10;99.90;;;;;;5044620;28;20029;-73
2021/11/17 09:35:21;;;;;;;35.50;14.82;;;6.20;99.90;;;;;;5046283;28;20044;-73
2021/11/17 09:37:49;;;;;;;33.60;14.05;;;6.20;99.90;;;;;;5045357;28;20033;-72
2021/11/17 09:40:26;;;;;;;36.22;14.45;;;6.20;99.90;;;;;;5041227;28;20463;-73
2021/11/17 09:42:52;;;;;;;35.88;13.95;;;6.20;99.90;;;;;;5044287;28;20277;-73
2021/11/17 09:45:19;;;;;;;31.17;13.68;;;6.30;99.90;;;;;;5043152;28;20048;-73
2021/11/17 09:47:48;;;;;;;32.72;14.15;;;6.20;99.90;;;;;;5049260;28;20550;-73
2021/11/17 09:50:28;;;;;;;33.58;13.55;;;6.20;99.90;;;;;;5049593;28;20039;-73
2021/11/17 09:53:08;;;;;;;31.73;12.50;;;6.20;99.90;;;;;;5046984;28;20033;-73
2021/11/17 09:56:00;;;;;;;31.75;12.93;;;6.20;99.90;;;;;;5045472;28;20079;-75
2021/11/17 09:58:31;;;;;;;;;;;6.20;99.90;;;;;;5050532;28;20040;-73
2021/11/17 10:01:24;;;;;;;26.95;11.48;;;6.20;99.90;;;;;;5053116;28;19908;-73
2021/11/17 10:04:16;;;;;;;29.50;12.25;;;6.20;99.90;;;;;;5045955;28;20036;-73
2021/11/17 10:10:00;;;;;;;28.30;12.20;;;6.20;99.90;;;;;;5048735;28;20029;-73
2021/11/17 10:13:12;;;;;;;30.75;12.38;;;6.20;99.90;;;;;;5049951;28;20040;-73
2021/11/17 10:15:41;;;;;;;32.67;13.07;;;6.20;99.90;;;;;;5038913;28;20060;-73
2021/11/17 10:18:30;;;;;;;32.20;13.40;;;6.10;99.90;;;;;;5050022;28;20029;-73
2021/11/17 10:21:02;;;;;;;34.65;13.90;;;6.20;99.90;;;;;;5047059;28;20033;-73
2021/11/17 10:23:36;;;;;;;30.05;12.02;;;6.20;99.90;;;;;;5049898;28;20025;-73
2021/11/17 10:26:05;;;;;;;28.23;12.05;;;6.20;99.90;;;;;;5050083;28;20021;-74
2021/11/17 10:28:33;;;;;;;36.28;15.32;;;6.20;99.90;;;;;;5045665;28;20036;-73
2021/11/17 10:31:05;;;;;;;38.17;15.15;;;6.20;99.90;;;;;;5050053;28;20049;-73
2021/11/17 10:33:58;;;;;;;39.33;15.23;;;6.20;99.90;;;;;;5049041;28;20032;-73
2021/11/17 10:36:49;;;;;;;38.65;14.15;;;6.20;99.90;;;;;;5048467;28;20032;-73
2021/11/17 10:39:48;;;;;;;35.95;13.35;;;6.20;99.90;;;;;;5045640;28;20044;-73
2021/11/17 10:42:31;;;;;;;30.98;12.02;;;6.20;99.90;;;;;;5035128;28;20063;-73
2021/11/17 10:45:08;;;;;;;31.98;13.40;;;6.30;99.90;;;;;;5040863;28;20026;-73
2021/11/17 10:47:39;;;;;;;32.33;12.60;;;6.30;99.90;;;;;;5048691;28;20052;-73
2021/11/17 10:50:10;;;;;;;32.35;13.85;;;6.30;99.90;;;;;;5047289;28;20387;-73
2021/11/17 10:52:53;;;;;;;33.92;13.13;;;6.30;99.90;;;;;;5041679;28;20521;-73
2021/11/17 10:55:24;;;;;;;38.53;13.68;;;6.40;99.90;;;;;;5044853;28;20028;-73
2021/11/17 10:57:50;;;;;;;;;;;6.40;99.90;;;;;;5048691;28;20502;-73
2021/11/17 11:00:20;;;;;;;34.67;14.48;;;6.40;99.90;;;;;;5049463;28;19956;-73
2021/11/17 11:02:48;;;;;;;34.83;12.68;;;6.40;99.90;;;;;;5049550;28;20034;-73
2021/11/17 11:05:20;;;;;;;35.30;14.00;;;6.40;99.90;;;;;;5048599;28;20041;-73
2021/11/17 11:07:57;;;;;;;34.17;14.10;;;6.50;99.90;;;;;;5045951;28;20107;-73
2021/11/17 11:10:39;;;;;;;38.10;14.70;;;6.50;99.90;;;;;;5038700;28;20037;-73
2021/11/17 11:13:11;;;;;;;37.42;14.07;;;6.50;99.90;;;;;;5047553;28;20037;-73
2021/11/17 11:15:36;;;;;;;;;;;6.50;99.90;;;;;;5047305;28;20100;-74
2021/11/17 11:18:10;;;;;;;33.50;13.18;;;6.50;99.90;;;;;;5043021;28;19915;-72
2021/11/17 11:20:50;;;;;;;34.08;14.10;;;6.50;99.90;;;;;;5045640;28;20040;-76
2021/11/17 11:23:24;;;;;;;41.42;15.27;;;6.50;99.90;;;;;;5050513;28;20302;-75
2021/11/17 11:25:53;;;;;;;41.83;15.00;;;6.60;99.90;;;;;;5050008;28;20043;-74
2021/11/17 11:28:21;;;;;;;39.38;15.18;;;6.60;99.90;;;;;;5043468;28;20025;-72
2021/11/17 11:30:50;;;;;;;36.22;13.93;;;6.60;99.90;;;;;;5048988;28;20479;-76
2021/11/17 11:33:23;;;;;;;43.42;16.55;;;6.70;99.90;;;;;;5046768;28;20048;-75
2021/11/17 11:36:11;;;;;;;43.92;17.33;;;6.70;99.90;;;;;;5046155;28;20017;-76
2021/11/17 11:38:40;;;;;;;41.97;15.60;;;6.70;99.90;;;;;;5041559;28;20037;-75
2021/11/17 11:41:33;;;;;;;45.97;18.23;;;6.80;99.90;;;;;;5045128;28;20076;-74
2021/11/17 11:44:23;;;;;;;47.05;17.55;;;6.80;99.90;;;;;;5050274;28;20048;-74
2021/11/17 11:46:57;;;;;;;52.88;18.92;;;6.90;99.90;;;;;;5045987;28;20548;-74
2021/11/17 11:49:51;;;;;;;53.63;20.48;;;7.00;99.90;;;;;;5046459;28;20060;-73
2021/11/17 11:52:25;;;;;;;58.17;20.50;;;7.10;99.90;;;;;;5044608;28;20024;-73
2021/11/17 11:54:58;;;;;;;51.47;19.08;;;7.10;99.90;;;;;;5046289;28;20132;-73
2021/11/17 11:57:27;;;;;;;58.88;22.58;;;7.10;99.90;;;;;;5044148;28;20025;-73
2021/11/17 12:00:20;;;;;;;60.35;22.25;;;7.10;99.90;;;;;;5047086;28;20079;-73
2021/11/17 12:02:51;;;;;;;55.25;20.73;;;7.20;99.90;;;;;;5042449;28;20053;-74
2021/11/17 12:05:34;;;;;;;52.80;21.90;;;7.20;99.90;;;;;;5044240;28;20031;-74
2021/11/17 12:08:20;;;;;;;69.57;25.02;;;7.20;99.90;;;;;;5049802;28;20115;-74
2021/11/17 12:11:14;;;;;;;59.83;22.80;;;7.20;99.90;;;;;;5045028;28;20029;-74
2021/11/17 12:13:44;;;;;;;60.85;21.50;;;7.30;99.90;;;;;;5044866;28;20044;-73
2021/11/17 12:16:19;;;;;;;64.70;24.20;;;7.30;99.90;;;;;;5046308;28;20494;-73
2021/11/17 12:18:51;;;;;;;57.40;23.92;;;7.30;99.90;;;;;;5048188;28;20479;-73
2021/11/17 12:21:31;;;;;;;54.75;23.38;;;7.40;99.90;;;;;;5044623;28;20082;-73
2021/11/17 12:24:21;;;;;;;62.13;23.15;;;7.40;99.90;;;;;;5046560;28;20114;-74
2021/11/17 12:26:57;;;;;;;64.10;24.08;;;7.50;99.90;;;;;;5042013;28;20502;-73
2021/11/17 12:29:26;;;;;;;63.50;24.67;;;7.50;99.90;;;;;;5044621;28;20104;-73
2021/11/17 12:32:07;;;;;;;49.33;22.75;;;7.60;99.90;;;;;;5045549;28;20391;-73
2021/11/17 12:34:39;;;;;;;;;;;7.80;99.90;;;;;;5046395;28;20096;-71
2021/11/17 12:37:33;;;;;;;43.42;18.73;;;7.90;99.90;;;;;;5045762;28;19940;-72
2021/11/17 12:40:02;;;;;;;55.35;22.90;;;7.90;99.90;;;;;;5034646;28;20064;-73
2021/11/17 12:42:38;;;;;;;46.70;21.60;;;7.90;99.90;;;;;;5050267;28;20079;-72
2021/11/17 12:45:22;;;;;;;47.83;20.67;;;7.90;99.90;;;;;;5049418;28;20582;-72
2021/11/17 12:47:53;;;;;;;54.85;21.73;;;8.00;99.90;;;;;;5042348;28;20135;-72
2021/11/17 12:50:27;;;;;;;47.30;22.13;;;8.00;99.90;;;;;;5046457;28;20064;-72
2021/11/17 12:52:57;;;;;;;48.67;21.25;;;8.00;99.90;;;;;;5046802;28;20029;-72
2021/11/17 12:55:32;;;;;;;46.53;20.52;;;8.10;99.90;;;;;;5040943;28;20029;-73
2021/11/17 12:58:09;;;;;;;51.58;22.08;;;8.20;99.90;;;;;;5043936;28;20048;-73
2021/11/17 13:00:37;;;;;;;52.30;21.67;;;8.20;99.90;;;;;;5050894;28;20455;-73
2021/11/17 13:03:07;;;;;;;40.22;18.38;;;8.50;99.90;;;;;;5043059;28;20120;-73
2021/11/17 13:05:43;;;;;;;39.13;18.13;;;8.70;99.90;;;;;;5044877;28;20090;-72
2021/11/17 13:08:11;;;;;;;38.28;18.42;;;8.70;99.90;;;;;;5043693;28;20387;-72
2021/11/17 13:10:47;;;;;;;39.70;17.35;;;8.60;99.90;;;;;;5042010;28;20435;-73
2021/11/17 13:13:19;;;;;;;39.40;18.25;;;8.50;99.90;;;;;;5044261;28;20029;-73
2021/11/17 13:15:48;;;;;;;40.95;17.92;;;8.50;99.90;;;;;;5037133;28;20037;-72
2021/11/17 13:18:44;;;;;;;34.50;16.25;;;8.50;99.90;;;;;;5040431;28;20021;-73
2021/11/17 13:21:15;;;;;;;39.72;17.20;;;8.40;99.90;;;;;;5044070;28;20071;-72
2021/11/17 13:24:09;;;;;;;64.72;33.88;;;8.40;99.90;;;;;;5045233;28;20041;-72
2021/11/17 13:26:50;;;;;;;183.80;100.53;;;8.30;99.90;;;;;;5036808;28;20045;-72
2021/11/17 13:29:28;;;;;;;163.38;109.95;;;8.40;99.90;;;;;;5046058;28;20425;-72
2021/11/17 13:32:03;;;;;;;52.10;24.52;;;8.40;99.90;;;;;;5046775;28;20025;-72
2021/11/17 13:34:41;;;;;;;40.67;19.23;;;8.40;99.90;;;;;;5044874;28;20073;-72
2021/11/17 13:37:36;;;;;;;36.53;17.52;;;8.40;99.90;;;;;;5041404;28;20025;-73
2021/11/17 13:40:21;;;;;;;45.03;19.33;;;8.40;99.90;;;;;;5046632;28;20025;-72
2021/11/17 13:42:47;;;;;;;43.45;17.85;;;8.40;99.90;;;;;;5044180;28;20071;-72
2021/11/17 13:45:17;;;;;;;44.53;20.70;;;8.40;99.90;;;;;;5043591;28;20029;-73
2021/11/17 13:47:43;;;;;;;43.80;18.13;;;8.40;99.90;;;;;;5040508;28;20106;-73
2021/11/17 13:50:11;;;;;;;40.05;18.50;;;8.40;99.90;;;;;;5044399;28;20399;-73
2021/11/17 13:52:40;;;;;;;43.25;19.38;;;8.40;99.90;;;;;;5046913;28;20037;-73
2021/11/17 13:55:09;;;;;;;42.78;19.15;;;8.50;99.90;;;;;;5049855;28;20021;-73
2021/11/17 13:57:35;;;;;;;44.28;18.23;;;8.40;99.90;;;;;;5045151;28;20037;-73
2021/11/17 14:00:03;;;;;;;44.42;17.88;;;8.50;99.90;;;;;;5045687;28;20036;-74
2021/11/17 14:02:29;;;;;;;44.95;20.38;;;8.50;99.90;;;;;;5046846;28;20033;-73
2021/11/17 14:04:55;;;;;;;45.53;19.30;;;8.50;99.90;;;;;;5049462;28;20368;-73
2021/11/17 14:07:21;;;;;;;43.28;18.40;;;8.40;99.90;;;;;;5049207;28;20039;-73
2021/11/17 14:09:47;;;;;;;38.20;17.08;;;8.50;99.90;;;;;;5050193;28;20534;-72
2021/11/17 14:12:14;;;;;;;47.85;19.98;;;8.50;99.90;;;;;;5045609;28;20028;-74
2021/11/17 14:14:40;;;;;;;50.30;20.77;;;8.50;99.90;;;;;;5048596;28;20059;-73
2021/11/17 14:17:08;;;;;;;48.03;19.15;;;8.40;99.90;;;;;;5047383;28;20025;-73
2021/11/17 14:19:35;;;;;;;52.80;21.25;;;8.40;99.90;;;;;;5060640;28;20466;-73
2021/11/17 14:22:01;;;;;;;41.47;17.42;;;8.40;99.90;;;;;;5044507;28;20033;-73
2021/11/17 14:24:28;;;;;;;45.95;18.60;;;8.50;99.90;;;;;;5048215;28;20088;-74
2021/11/17 14:26:54;;;;;;;38.60;16.40;;;8.50;99.90;;;;;;5047003;28;20040;-74
2021/11/17 14:29:29;;;;;;;37.83;17.60;;;8.50;99.90;;;;;;5043432;28;20055;-73
2021/11/17 14:31:59;;;;;;;41.97;18.33;;;8.50;99.90;;;;;;5045673;28;20033;-73
2021/11/17 14:34:25;;;;;;;41.67;18.85;;;8.50;99.90;;;;;;5045888;28;20059;-73
2021/11/17 14:37:01;;;;;;;46.38;19.25;;;8.50;99.90;;;;;;5044066;28;20730;-73
2021/11/17 14:39:27;;;;;;;44.47;17.35;;;8.50;99.90;;;;;;5046930;28;20322;-73
2021/11/17 14:41:53;;;;;;;49.00;20.40;;;8.50;99.90;;;;;;5046244;28;20479;-72
2021/11/17 14:44:19;;;;;;;48.00;18.23;;;8.50;99.90;;;;;;5048732;28;20029;-74
2021/11/17 14:46:44;;;;;;;42.28;17.25;;;8.50;99.90;;;;;;5044612;28;20037;-73
2021/11/17 14:49:11;;;;;;;37.63;16.73;;;8.50;99.90;;;;;;5044747;28;20116;-73
2021/11/17 14:51:39;;;;;;;39.78;17.02;;;8.50;99.90;;;;;;5069282;28;20033;-73
2021/11/17 14:54:05;;;;;;;49.33;19.17;;;8.50;99.90;;;;;;5047788;28;20025;-75
2021/11/17 14:56:31;;;;;;;34.38;15.98;;;8.50;99.90;;;;;;5045125;28;20036;-73
2021/11/17 14:58:56;;;;;;;40.70;17.85;;;8.40;99.90;;;;;;5045020;28;20029;-73
2021/11/17 15:01:31;;;;;;;34.25;16.60;;;8.40;99.90;;;;;;5041966;28;20076;-73
2021/11/17 15:03:58;;;;;;;46.35;18.70;;;8.40;99.90;;;;;;5046111;28;20086;-73
2021/11/17 15:06:25;;;;;;;52.22;20.13;;;8.30;99.90;;;;;;5045145;28;20471;-73
2021/11/17 15:08:52;;;;;;;45.47;19.90;;;8.30;99.90;;;;;;5044669;28;20056;-73
2021/11/17 15:11:19;;;;;;;39.30;16.63;;;8.30;99.90;;;;;;5042680;28;20040;-73
2021/11/17 15:13:46;;;;;;;37.67;17.13;;;8.30;99.90;;;;;;5046757;28;20029;-73
2021/11/17 15:16:12;;;;;;;39.78;17.17;;;8.20;99.90;;;;;;5041479;28;20030;-73
2021/11/17 15:18:40;;;;;;;44.35;17.23;;;8.20;99.90;;;;;;5043949;28;20029;-72
2021/11/17 15:21:07;;;;;;;51.60;17.90;;;8.20;99.90;;;;;;5043952;28;20438;-73
2021/11/17 15:23:33;;;;;;;47.08;17.85;;;8.20;99.90;;;;;;5044568;28;20032;-73
2021/11/17 15:26:02;;;;;;;46.70;18.85;;;8.10;99.90;;;;;;5045269;28;20038;-73
2021/11/17 15:28:35;;;;;;;36.95;15.38;;;8.10;99.90;;;;;;5043100;28;20029;-73
2021/11/17 15:31:09;;;;;;;41.58;17.52;;;8.10;99.90;;;;;;5046685;28;20039;-73
2021/11/17 15:33:36;;;;;;;49.17;18.10;;;8.10;99.90;;;;;;5046375;28;20029;-73
2021/11/17 15:36:04;;;;;;;46.10;18.38;;;8.20;99.90;;;;;;5048901;28;20328;-73
2021/11/17 15:38:30;;;;;;;48.65;17.90;;;8.20;99.90;;;;;;5049441;28;20044;-73
2021/11/17 15:40:58;;;;;;;41.70;16.70;;;8.20;99.90;;;;;;5044353;28;20041;-73
2021/11/17 15:43:25;;;;;;;43.33;16.75;;;8.20;99.90;;;;;;5045038;28;20099;-73
2021/11/17 15:45:52;;;;;;;40.15;16.33;;;8.20;99.90;;;;;;5042011;28;20025;-73
2021/11/17 15:48:18;;;;;;;40.70;15.57;;;8.20;99.90;;;;;;5044049;28;20082;-73
2021/11/17 15:50:55;;;;;;;49.22;16.63;;;8.20;99.90;;;;;;5043201;28;20052;-72